Bozeman, Montana
Current Conditions -  °F | °C
As of 5:56 AM on Saturday 20 Dec 2014 (Local Time) from KBZN Reporting Station
Clear Clear  
Wind Chill: 16°   Ceiling: Unl
Heat Index: 22°   Visibility: 10mi
Dew Point: 19°   Wind: 5mph
Humidity: 89%   Direction: 130°SE
Pressure: 29.97"   Gusts: NA
Location:  45.68°N, 111.03°W
Report Text: KBZN 201256Z 13004KT 10SM CLR M06/M07 A2997 RMK AO2 SLP187 T10561072
Loading
Personal Weather Stations






























Interactive Weather Map New forecast layout! Learn more

10-Day Weather Forecast

Advertisements
Track Severe Weather on mobile